sensor_id;sensor_type;location;lat;lon;timestamp;P1;durP1;ratioP1;P2;durP2;ratioP2
9228;SDS011;4649;42.644;23.284;2022-07-29T05:18:41;5.53;;;5.23;;
9228;SDS011;4649;42.644;23.284;2022-07-29T05:21:09;6.10;;;4.70;;
9228;SDS011;4649;42.644;23.284;2022-07-29T05:23:36;5.50;;;5.10;;
9228;SDS011;4649;42.644;23.284;2022-07-29T05:26:03;7.73;;;5.13;;
9228;SDS011;4649;42.644;23.284;2022-07-29T05:28:32;7.23;;;5.17;;
9228;SDS011;4649;42.644;23.284;2022-07-29T05:30:59;6.23;;;5.70;;
9228;SDS011;4649;42.644;23.284;2022-07-29T05:33:28;5.40;;;5.00;;
9228;SDS011;4649;42.644;23.284;2022-07-29T05:35:55;6.80;;;4.93;;
9228;SDS011;4649;42.644;23.284;2022-07-29T05:38:22;9.07;;;5.90;;
9228;SDS011;4649;42.644;23.284;2022-07-29T05:40:49;4.50;;;4.20;;
9228;SDS011;4649;42.644;23.284;2022-07-29T05:43:15;4.40;;;4.07;;
9228;SDS011;4649;42.644;23.284;2022-07-29T05:45:42;3.87;;;3.60;;
9228;SDS011;4649;42.644;23.284;2022-07-29T05:48:09;3.97;;;3.50;;
9228;SDS011;4649;42.644;23.284;2022-07-29T05:50:37;3.95;;;3.75;;
9228;SDS011;4649;42.644;23.284;2022-07-29T05:53:04;5.47;;;3.47;;
9228;SDS011;4649;42.644;23.284;2022-07-29T05:55:31;4.18;;;3.42;;
9228;SDS011;4649;42.644;23.284;2022-07-29T05:57:57;8.88;;;3.92;;
9228;SDS011;4649;42.644;23.284;2022-07-29T06:00:24;5.70;;;3.27;;
9228;SDS011;4649;42.644;23.284;2022-07-29T06:02:51;4.28;;;3.60;;
9228;SDS011;4649;42.644;23.284;2022-07-29T06:05:18;4.28;;;3.15;;
9228;SDS011;4649;42.644;23.284;2022-07-29T06:07:46;5.43;;;3.88;;
9228;SDS011;4649;42.644;23.284;2022-07-29T06:10:13;13.35;;;4.25;;
9228;SDS011;4649;42.644;23.284;2022-07-29T06:12:40;5.18;;;4.10;;
9228;SDS011;4649;42.644;23.284;2022-07-29T06:15:07;6.28;;;3.47;;
9228;SDS011;4649;42.644;23.284;2022-07-29T06:17:35;3.45;;;3.25;;
9228;SDS011;4649;42.644;23.284;2022-07-29T06:20:02;4.57;;;4.22;;
9228;SDS011;4649;42.644;23.284;2022-07-29T06:22:29;7.90;;;4.18;;
9228;SDS011;4649;42.644;23.284;2022-07-29T06:25:10;17.90;;;4.45;;
9228;SDS011;4649;42.644;23.284;2022-07-29T06:27:41;3.80;;;3.23;;
9228;SDS011;4649;42.644;23.284;2022-07-29T06:30:13;7.07;;;4.03;;
9228;SDS011;4649;42.644;23.284;2022-07-29T09:22:29;3.20;;;2.90;;
9228;SDS011;4649;42.644;23.284;2022-07-29T09:24:58;2.45;;;2.35;;
9228;SDS011;4649;42.644;23.284;2022-07-29T09:27:25;2.20;;;2.10;;
9228;SDS011;4649;42.644;23.284;2022-07-29T09:29:57;8.95;;;2.90;;
9228;SDS011;4649;42.644;23.284;2022-07-29T09:32:25;3.85;;;2.42;;
9228;SDS011;4649;42.644;23.284;2022-07-29T09:37:42;2.55;;;2.45;;
9228;SDS011;4649;42.644;23.284;2022-07-29T09:40:13;2.95;;;2.75;;
9228;SDS011;4649;42.644;23.284;2022-07-29T09:42:41;3.05;;;2.95;;
9228;SDS011;4649;42.644;23.284;2022-07-29T09:45:09;3.00;;;2.83;;
9228;SDS011;4649;42.644;23.284;2022-07-29T09:47:46;2.80;;;2.60;;
9228;SDS011;4649;42.644;23.284;2022-07-29T09:50:14;2.80;;;2.60;;
9228;SDS011;4649;42.644;23.284;2022-07-29T09:52:46;3.10;;;2.60;;
9228;SDS011;4649;42.644;23.284;2022-07-29T09:55:13;9.20;;;2.70;;
9228;SDS011;4649;42.644;23.284;2022-07-29T10:08:04;3.83;;;2.93;;
9228;SDS011;4649;42.644;23.284;2022-07-29T10:16:11;23.80;;;4.10;;
9228;SDS011;4649;42.644;23.284;2022-07-29T10:18:41;4.03;;;3.00;;
9228;SDS011;4649;42.644;23.284;2022-07-29T10:21:10;3.55;;;3.30;;
9228;SDS011;4649;42.644;23.284;2022-07-29T10:23:39;3.67;;;3.00;;
9228;SDS011;4649;42.644;23.284;2022-07-29T10:26:17;3.28;;;3.10;;
9228;SDS011;4649;42.644;23.284;2022-07-29T10:28:46;4.40;;;3.08;;
9228;SDS011;4649;42.644;23.284;2022-07-29T10:31:14;4.55;;;2.78;;
9228;SDS011;4649;42.644;23.284;2022-07-29T10:33:51;3.03;;;2.83;;
9228;SDS011;4649;42.644;23.284;2022-07-29T10:36:32;2.95;;;2.75;;
9228;SDS011;4649;42.644;23.284;2022-07-29T10:39:17;3.05;;;2.95;;
9228;SDS011;4649;42.644;23.284;2022-07-29T10:41:59;2.72;;;2.63;;
9228;SDS011;4649;42.644;23.284;2022-07-29T10:44:39;3.13;;;2.83;;
9228;SDS011;4649;42.644;23.284;2022-07-29T10:47:19;3.40;;;3.23;;
9228;SDS011;4649;42.644;23.284;2022-07-29T10:50:07;3.40;;;3.10;;
9228;SDS011;4649;42.644;23.284;2022-07-29T10:55:48;3.17;;;3.07;;
9228;SDS011;4649;42.644;23.284;2022-07-29T11:01:51;3.67;;;3.50;;
9228;SDS011;4649;42.644;23.284;2022-07-29T11:07:24;9.02;;;3.42;;
9228;SDS011;4649;42.644;23.284;2022-07-29T11:12:56;4.90;;;2.78;;
9228;SDS011;4649;42.644;23.284;2022-07-29T11:15:23;7.53;;;3.75;;
9228;SDS011;4649;42.644;23.284;2022-07-29T11:18:03;7.80;;;3.45;;
9228;SDS011;4649;42.644;23.284;2022-07-29T11:20:32;2.65;;;2.50;;
9228;SDS011;4649;42.644;23.284;2022-07-29T11:23:00;4.50;;;3.20;;
9228;SDS011;4649;42.644;23.284;2022-07-29T11:25:27;3.92;;;3.20;;
9228;SDS011;4649;42.644;23.284;2022-07-29T12:59:36;2.97;;;2.77;;
9228;SDS011;4649;42.644;23.284;2022-07-29T13:02:20;3.00;;;2.90;;
9228;SDS011;4649;42.644;23.284;2022-07-29T13:14:48;3.03;;;2.93;;
9228;SDS011;4649;42.644;23.284;2022-07-29T13:22:58;3.10;;;3.00;;
9228;SDS011;4649;42.644;23.284;2022-07-29T13:25:27;3.30;;;3.10;;
9228;SDS011;4649;42.644;23.284;2022-07-29T13:27:56;3.43;;;3.13;;
9228;SDS011;4649;42.644;23.284;2022-07-29T13:30:25;4.80;;;3.07;;
9228;SDS011;4649;42.644;23.284;2022-07-29T13:32:52;3.23;;;2.93;;
9228;SDS011;4649;42.644;23.284;2022-07-29T13:35:21;2.80;;;2.70;;
9228;SDS011;4649;42.644;23.284;2022-07-29T13:38:09;3.27;;;3.07;;
9228;SDS011;4649;42.644;23.284;2022-07-29T13:43:39;3.83;;;3.27;;
9228;SDS011;4649;42.644;23.284;2022-07-29T13:46:32;2.93;;;2.83;;
9228;SDS011;4649;42.644;23.284;2022-07-29T13:49:20;3.53;;;3.43;;
9228;SDS011;4649;42.644;23.284;2022-07-29T13:52:24;3.00;;;2.90;;
9228;SDS011;4649;42.644;23.284;2022-07-29T13:55:03;3.77;;;3.27;;
9228;SDS011;4649;42.644;23.284;2022-07-29T13:57:30;3.13;;;2.97;;
9228;SDS011;4649;42.644;23.284;2022-07-29T13:59:57;5.63;;;2.50;;
9228;SDS011;4649;42.644;23.284;2022-07-29T14:02:25;3.70;;;2.93;;
9228;SDS011;4649;42.644;23.284;2022-07-29T14:04:52;4.83;;;2.57;;
9228;SDS011;4649;42.644;23.284;2022-07-29T14:07:20;5.23;;;2.90;;
9228;SDS011;4649;42.644;23.284;2022-07-29T14:09:50;4.17;;;2.97;;
9228;SDS011;4649;42.644;23.284;2022-07-29T14:12:24;2.93;;;2.83;;
9228;SDS011;4649;42.644;23.284;2022-07-29T14:15:24;3.27;;;3.07;;
9228;SDS011;4649;42.644;23.284;2022-07-29T14:20:37;3.57;;;3.37;;
9228;SDS011;4649;42.644;23.284;2022-07-29T14:23:43;3.17;;;2.97;;
9228;SDS011;4649;42.644;23.284;2022-07-29T14:26:26;7.53;;;3.80;;
9228;SDS011;4649;42.644;23.284;2022-07-29T14:29:16;3.37;;;3.17;;
9228;SDS011;4649;42.644;23.284;2022-07-29T14:31:53;4.53;;;3.70;;
9228;SDS011;4649;42.644;23.284;2022-07-29T14:37:40;3.10;;;3.00;;
9228;SDS011;4649;42.644;23.284;2022-07-29T14:40:22;3.50;;;3.40;;
9228;SDS011;4649;42.644;23.284;2022-07-29T14:42:50;3.53;;;3.33;;
9228;SDS011;4649;42.644;23.284;2022-07-29T14:45:17;4.47;;;3.33;;
9228;SDS011;4649;42.644;23.284;2022-07-29T14:47:44;3.80;;;3.60;;
9228;SDS011;4649;42.644;23.284;2022-07-29T14:50:11;4.53;;;3.80;;
9228;SDS011;4649;42.644;23.284;2022-07-29T14:52:39;4.00;;;3.80;;
9228;SDS011;4649;42.644;23.284;2022-07-29T14:55:07;3.10;;;3.00;;
9228;SDS011;4649;42.644;23.284;2022-07-29T14:57:34;3.73;;;3.53;;
9228;SDS011;4649;42.644;23.284;2022-07-29T15:00:01;3.97;;;3.70;;
9228;SDS011;4649;42.644;23.284;2022-07-29T15:02:29;3.53;;;3.20;;
9228;SDS011;4649;42.644;23.284;2022-07-29T15:04:56;4.07;;;3.50;;
9228;SDS011;4649;42.644;23.284;2022-07-29T15:07:23;4.43;;;3.60;;
9228;SDS011;4649;42.644;23.284;2022-07-29T15:09:51;3.50;;;3.30;;
9228;SDS011;4649;42.644;23.284;2022-07-29T15:12:18;3.87;;;3.60;;
9228;SDS011;4649;42.644;23.284;2022-07-29T15:14:45;3.53;;;3.27;;
9228;SDS011;4649;42.644;23.284;2022-07-29T15:17:11;3.80;;;3.63;;
9228;SDS011;4649;42.644;23.284;2022-07-29T15:19:38;3.77;;;3.50;;
9228;SDS011;4649;42.644;23.284;2022-07-29T15:22:05;3.43;;;3.33;;
9228;SDS011;4649;42.644;23.284;2022-07-29T15:24:31;3.67;;;3.50;;
9228;SDS011;4649;42.644;23.284;2022-07-29T15:27:00;3.60;;;3.50;;
9228;SDS011;4649;42.644;23.284;2022-07-29T15:29:26;3.73;;;3.53;;
9228;SDS011;4649;42.644;23.284;2022-07-29T15:31:53;3.60;;;3.40;;
9228;SDS011;4649;42.644;23.284;2022-07-29T15:34:20;3.30;;;3.13;;
9228;SDS011;4649;42.644;23.284;2022-07-29T15:36:48;3.37;;;3.23;;
9228;SDS011;4649;42.644;23.284;2022-07-29T15:39:15;3.50;;;3.40;;
9228;SDS011;4649;42.644;23.284;2022-07-29T15:41:42;4.07;;;3.87;;
9228;SDS011;4649;42.644;23.284;2022-07-29T15:44:12;3.37;;;3.27;;
9228;SDS011;4649;42.644;23.284;2022-07-29T15:46:42;3.77;;;3.47;;
9228;SDS011;4649;42.644;23.284;2022-07-29T15:49:26;7.30;;;3.70;;
9228;SDS011;4649;42.644;23.284;2022-07-29T15:51:56;3.20;;;3.10;;
9228;SDS011;4649;42.644;23.284;2022-07-29T15:54:23;3.73;;;3.53;;
9228;SDS011;4649;42.644;23.284;2022-07-29T15:56:50;4.63;;;3.80;;
9228;SDS011;4649;42.644;23.284;2022-07-29T15:59:18;3.87;;;3.67;;
9228;SDS011;4649;42.644;23.284;2022-07-29T16:01:47;4.10;;;3.83;;
9228;SDS011;4649;42.644;23.284;2022-07-29T16:04:15;4.10;;;3.67;;
9228;SDS011;4649;42.644;23.284;2022-07-29T16:06:42;4.30;;;4.10;;
9228;SDS011;4649;42.644;23.284;2022-07-29T16:09:10;3.50;;;3.23;;
9228;SDS011;4649;42.644;23.284;2022-07-29T16:11:38;5.73;;;3.73;;
9228;SDS011;4649;42.644;23.284;2022-07-29T16:14:05;4.20;;;4.00;;
9228;SDS011;4649;42.644;23.284;2022-07-29T16:16:35;4.80;;;3.93;;
9228;SDS011;4649;42.644;23.284;2022-07-29T16:19:04;4.00;;;3.70;;
9228;SDS011;4649;42.644;23.284;2022-07-29T16:21:33;4.20;;;3.90;;
9228;SDS011;4649;42.644;23.284;2022-07-29T16:24:01;4.43;;;3.87;;
9228;SDS011;4649;42.644;23.284;2022-07-29T16:26:28;4.77;;;3.67;;
9228;SDS011;4649;42.644;23.284;2022-07-29T16:28:55;3.67;;;3.47;;
9228;SDS011;4649;42.644;23.284;2022-07-29T16:31:22;4.33;;;3.90;;
9228;SDS011;4649;42.644;23.284;2022-07-29T16:33:50;3.55;;;3.35;;
9228;SDS011;4649;42.644;23.284;2022-07-29T16:36:17;4.30;;;3.97;;
9228;SDS011;4649;42.644;23.284;2022-07-29T16:38:44;4.13;;;3.73;;
9228;SDS011;4649;42.644;23.284;2022-07-29T16:41:11;4.50;;;4.10;;
9228;SDS011;4649;42.644;23.284;2022-07-29T16:43:38;4.23;;;3.93;;
9228;SDS011;4649;42.644;23.284;2022-07-29T16:46:06;3.93;;;3.77;;
9228;SDS011;4649;42.644;23.284;2022-07-29T16:48:34;5.50;;;3.70;;
9228;SDS011;4649;42.644;23.284;2022-07-29T16:51:05;4.27;;;4.07;;
9228;SDS011;4649;42.644;23.284;2022-07-29T16:53:31;4.33;;;4.10;;
9228;SDS011;4649;42.644;23.284;2022-07-29T16:55:58;4.83;;;4.53;;
9228;SDS011;4649;42.644;23.284;2022-07-29T16:58:25;4.47;;;4.07;;
9228;SDS011;4649;42.644;23.284;2022-07-29T17:00:52;4.83;;;4.63;;
9228;SDS011;4649;42.644;23.284;2022-07-29T17:03:21;4.83;;;3.90;;
9228;SDS011;4649;42.644;23.284;2022-07-29T17:05:47;4.80;;;4.40;;
9228;SDS011;4649;42.644;23.284;2022-07-29T17:08:15;4.77;;;4.47;;
9228;SDS011;4649;42.644;23.284;2022-07-29T17:10:42;4.87;;;4.53;;
9228;SDS011;4649;42.644;23.284;2022-07-29T17:13:09;4.17;;;3.97;;
9228;SDS011;4649;42.644;23.284;2022-07-29T17:15:35;4.33;;;4.13;;
9228;SDS011;4649;42.644;23.284;2022-07-29T17:18:02;4.03;;;3.83;;
9228;SDS011;4649;42.644;23.284;2022-07-29T17:20:29;4.10;;;3.90;;
9228;SDS011;4649;42.644;23.284;2022-07-29T17:22:57;4.77;;;4.40;;
9228;SDS011;4649;42.644;23.284;2022-07-29T17:25:25;5.17;;;3.80;;
9228;SDS011;4649;42.644;23.284;2022-07-29T17:27:53;4.33;;;4.03;;
9228;SDS011;4649;42.644;23.284;2022-07-29T17:30:20;3.40;;;3.20;;
9228;SDS011;4649;42.644;23.284;2022-07-29T17:32:47;4.73;;;3.77;;
9228;SDS011;4649;42.644;23.284;2022-07-29T17:35:15;5.20;;;3.73;;
9228;SDS011;4649;42.644;23.284;2022-07-29T17:37:59;3.70;;;3.60;;
9228;SDS011;4649;42.644;23.284;2022-07-29T17:40:27;3.60;;;3.30;;
9228;SDS011;4649;42.644;23.284;2022-07-29T17:42:54;4.13;;;3.83;;
9228;SDS011;4649;42.644;23.284;2022-07-29T17:45:20;4.63;;;4.33;;
9228;SDS011;4649;42.644;23.284;2022-07-29T17:47:47;4.10;;;3.77;;
9228;SDS011;4649;42.644;23.284;2022-07-29T17:50:14;4.80;;;4.50;;
9228;SDS011;4649;42.644;23.284;2022-07-29T17:52:40;5.03;;;3.70;;
9228;SDS011;4649;42.644;23.284;2022-07-29T17:55:07;4.47;;;3.83;;
9228;SDS011;4649;42.644;23.284;2022-07-29T17:57:36;3.70;;;3.50;;
9228;SDS011;4649;42.644;23.284;2022-07-29T18:00:04;4.27;;;3.97;;
9228;SDS011;4649;42.644;23.284;2022-07-29T18:02:32;4.10;;;3.80;;
9228;SDS011;4649;42.644;23.284;2022-07-29T18:05:02;4.07;;;3.87;;
9228;SDS011;4649;42.644;23.284;2022-07-29T18:07:29;4.23;;;3.93;;
9228;SDS011;4649;42.644;23.284;2022-07-29T18:09:56;4.10;;;3.90;;
9228;SDS011;4649;42.644;23.284;2022-07-29T18:12:22;3.97;;;3.77;;
9228;SDS011;4649;42.644;23.284;2022-07-29T18:17:56;4.30;;;4.10;;
9228;SDS011;4649;42.644;23.284;2022-07-29T18:20:23;3.67;;;3.47;;
9228;SDS011;4649;42.644;23.284;2022-07-29T18:22:50;3.80;;;3.50;;
9228;SDS011;4649;42.644;23.284;2022-07-29T18:25:16;4.00;;;3.80;;
9228;SDS011;4649;42.644;23.284;2022-07-29T18:27:50;4.20;;;4.00;;
9228;SDS011;4649;42.644;23.284;2022-07-29T18:30:19;3.83;;;3.63;;
9228;SDS011;4649;42.644;23.284;2022-07-29T18:36:35;4.37;;;4.17;;
9228;SDS011;4649;42.644;23.284;2022-07-29T18:39:03;4.63;;;4.30;;
9228;SDS011;4649;42.644;23.284;2022-07-29T18:41:29;4.37;;;4.17;;
9228;SDS011;4649;42.644;23.284;2022-07-29T18:43:57;4.00;;;3.80;;
9228;SDS011;4649;42.644;23.284;2022-07-29T18:46:25;3.63;;;3.53;;
9228;SDS011;4649;42.644;23.284;2022-07-29T18:48:52;6.23;;;3.97;;
9228;SDS011;4649;42.644;23.284;2022-07-29T18:51:21;3.90;;;3.70;;
9228;SDS011;4649;42.644;23.284;2022-07-29T18:53:48;4.20;;;4.00;;
9228;SDS011;4649;42.644;23.284;2022-07-29T18:56:16;10.90;;;3.80;;
9228;SDS011;4649;42.644;23.284;2022-07-29T18:58:43;3.80;;;3.67;;
9228;SDS011;4649;42.644;23.284;2022-07-29T19:01:10;3.83;;;3.63;;
9228;SDS011;4649;42.644;23.284;2022-07-29T19:03:39;3.77;;;3.67;;
9228;SDS011;4649;42.644;23.284;2022-07-29T19:06:05;3.90;;;3.63;;
9228;SDS011;4649;42.644;23.284;2022-07-29T19:08:38;5.23;;;3.30;;
9228;SDS011;4649;42.644;23.284;2022-07-29T19:11:05;3.57;;;3.37;;
9228;SDS011;4649;42.644;23.284;2022-07-29T19:13:32;3.80;;;3.60;;
9228;SDS011;4649;42.644;23.284;2022-07-29T19:16:01;3.80;;;3.60;;
9228;SDS011;4649;42.644;23.284;2022-07-29T19:18:27;4.17;;;3.00;;
9228;SDS011;4649;42.644;23.284;2022-07-29T19:20:55;3.40;;;3.20;;
9228;SDS011;4649;42.644;23.284;2022-07-29T19:23:23;3.53;;;3.33;;
9228;SDS011;4649;42.644;23.284;2022-07-29T19:25:49;2.90;;;2.80;;
9228;SDS011;4649;42.644;23.284;2022-07-29T19:28:16;5.73;;;3.13;;
9228;SDS011;4649;42.644;23.284;2022-07-29T19:30:43;3.53;;;3.33;;
9228;SDS011;4649;42.644;23.284;2022-07-29T19:33:09;3.20;;;3.00;;
9228;SDS011;4649;42.644;23.284;2022-07-29T19:35:38;3.43;;;2.93;;
9228;SDS011;4649;42.644;23.284;2022-07-29T19:38:06;3.33;;;3.23;;
9228;SDS011;4649;42.644;23.284;2022-07-29T19:40:33;4.93;;;2.67;;
9228;SDS011;4649;42.644;23.284;2022-07-29T19:43:03;4.60;;;2.97;;
9228;SDS011;4649;42.644;23.284;2022-07-29T19:45:30;2.97;;;2.87;;
9228;SDS011;4649;42.644;23.284;2022-07-29T19:47:58;2.87;;;2.77;;
9228;SDS011;4649;42.644;23.284;2022-07-29T19:50:26;3.40;;;3.20;;
9228;SDS011;4649;42.644;23.284;2022-07-29T19:52:55;2.87;;;2.77;;
9228;SDS011;4649;42.644;23.284;2022-07-29T19:55:23;2.87;;;2.70;;
9228;SDS011;4649;42.644;23.284;2022-07-29T19:57:50;3.77;;;2.90;;
9228;SDS011;4649;42.644;23.284;2022-07-29T20:00:18;2.67;;;2.57;;
9228;SDS011;4649;42.644;23.284;2022-07-29T20:02:45;3.00;;;2.90;;
9228;SDS011;4649;42.644;23.284;2022-07-29T20:05:12;2.57;;;2.47;;
9228;SDS011;4649;42.644;23.284;2022-07-29T20:07:39;3.20;;;2.90;;
9228;SDS011;4649;42.644;23.284;2022-07-29T20:10:06;2.60;;;2.40;;
9228;SDS011;4649;42.644;23.284;2022-07-29T20:12:35;2.40;;;2.30;;
9228;SDS011;4649;42.644;23.284;2022-07-29T20:15:03;2.90;;;2.70;;
9228;SDS011;4649;42.644;23.284;2022-07-29T20:17:30;2.53;;;2.43;;
9228;SDS011;4649;42.644;23.284;2022-07-29T20:19:57;2.50;;;2.40;;
9228;SDS011;4649;42.644;23.284;2022-07-29T20:22:25;2.53;;;2.43;;
9228;SDS011;4649;42.644;23.284;2022-07-29T20:24:52;2.93;;;2.73;;
9228;SDS011;4649;42.644;23.284;2022-07-29T20:27:19;3.27;;;2.43;;
9228;SDS011;4649;42.644;23.284;2022-07-29T20:29:47;2.20;;;2.10;;
9228;SDS011;4649;42.644;23.284;2022-07-29T20:32:13;2.60;;;2.50;;
9228;SDS011;4649;42.644;23.284;2022-07-29T20:34:40;4.87;;;2.77;;
9228;SDS011;4649;42.644;23.284;2022-07-29T20:37:07;3.03;;;2.73;;
9228;SDS011;4649;42.644;23.284;2022-07-29T20:39:35;2.30;;;2.20;;
9228;SDS011;4649;42.644;23.284;2022-07-29T20:42:02;1.97;;;1.87;;
9228;SDS011;4649;42.644;23.284;2022-07-29T20:44:29;2.20;;;2.10;;
9228;SDS011;4649;42.644;23.284;2022-07-29T20:46:59;3.13;;;2.30;;
9228;SDS011;4649;42.644;23.284;2022-07-29T20:49:26;2.27;;;2.17;;
9228;SDS011;4649;42.644;23.284;2022-07-29T20:51:53;2.53;;;2.30;;
9228;SDS011;4649;42.644;23.284;2022-07-29T20:54:20;2.50;;;2.30;;
9228;SDS011;4649;42.644;23.284;2022-07-29T20:56:47;1.83;;;1.83;;
9228;SDS011;4649;42.644;23.284;2022-07-29T20:59:13;2.40;;;2.30;;
9228;SDS011;4649;42.644;23.284;2022-07-29T21:01:40;2.53;;;2.10;;
9228;SDS011;4649;42.644;23.284;2022-07-29T21:04:08;2.30;;;2.20;;
9228;SDS011;4649;42.644;23.284;2022-07-29T21:06:35;2.33;;;2.23;;
9228;SDS011;4649;42.644;23.284;2022-07-29T21:09:02;2.23;;;2.13;;
9228;SDS011;4649;42.644;23.284;2022-07-29T21:11:29;2.70;;;2.60;;
9228;SDS011;4649;42.644;23.284;2022-07-29T21:13:56;2.80;;;2.70;;
9228;SDS011;4649;42.644;23.284;2022-07-29T21:16:23;2.73;;;2.53;;
9228;SDS011;4649;42.644;23.284;2022-07-29T21:18:52;2.53;;;2.43;;
9228;SDS011;4649;42.644;23.284;2022-07-29T21:21:20;2.10;;;2.10;;
9228;SDS011;4649;42.644;23.284;2022-07-29T21:23:48;3.13;;;2.83;;
9228;SDS011;4649;42.644;23.284;2022-07-29T21:26:16;2.80;;;2.60;;
9228;SDS011;4649;42.644;23.284;2022-07-29T21:28:43;2.77;;;2.60;;
9228;SDS011;4649;42.644;23.284;2022-07-29T21:31:09;3.10;;;2.63;;
9228;SDS011;4649;42.644;23.284;2022-07-29T21:33:38;2.90;;;2.70;;
9228;SDS011;4649;42.644;23.284;2022-07-29T21:36:06;3.07;;;2.57;;
9228;SDS011;4649;42.644;23.284;2022-07-29T21:38:35;3.03;;;2.83;;
9228;SDS011;4649;42.644;23.284;2022-07-29T21:41:02;2.70;;;2.60;;
9228;SDS011;4649;42.644;23.284;2022-07-29T21:43:30;4.00;;;3.70;;
9228;SDS011;4649;42.644;23.284;2022-07-29T21:45:58;3.20;;;3.00;;
9228;SDS011;4649;42.644;23.284;2022-07-29T21:48:26;3.40;;;3.30;;
9228;SDS011;4649;42.644;23.284;2022-07-29T21:50:53;3.00;;;2.80;;
9228;SDS011;4649;42.644;23.284;2022-07-29T21:53:21;4.23;;;3.93;;
9228;SDS011;4649;42.644;23.284;2022-07-29T21:55:49;3.70;;;3.40;;
9228;SDS011;4649;42.644;23.284;2022-07-29T21:58:18;5.50;;;3.47;;
9228;SDS011;4649;42.644;23.284;2022-07-29T22:00:46;3.53;;;3.30;;
9228;SDS011;4649;42.644;23.284;2022-07-29T22:03:15;3.60;;;3.37;;
9228;SDS011;4649;42.644;23.284;2022-07-29T22:05:42;5.67;;;3.20;;
9228;SDS011;4649;42.644;23.284;2022-07-29T22:08:09;2.87;;;2.67;;
9228;SDS011;4649;42.644;23.284;2022-07-29T22:10:37;2.83;;;2.60;;
9228;SDS011;4649;42.644;23.284;2022-07-29T22:13:05;2.90;;;2.80;;
9228;SDS011;4649;42.644;23.284;2022-07-29T22:15:32;2.77;;;2.60;;
9228;SDS011;4649;42.644;23.284;2022-07-29T22:17:59;4.47;;;3.97;;
9228;SDS011;4649;42.644;23.284;2022-07-29T22:20:26;2.93;;;2.80;;
9228;SDS011;4649;42.644;23.284;2022-07-29T22:22:54;4.00;;;3.27;;
9228;SDS011;4649;42.644;23.284;2022-07-29T22:25:20;3.30;;;3.10;;
9228;SDS011;4649;42.644;23.284;2022-07-29T22:27:48;4.30;;;4.00;;
9228;SDS011;4649;42.644;23.284;2022-07-29T22:30:19;4.60;;;4.23;;
9228;SDS011;4649;42.644;23.284;2022-07-29T22:32:47;5.00;;;4.60;;
9228;SDS011;4649;42.644;23.284;2022-07-29T22:35:16;3.97;;;3.77;;
9228;SDS011;4649;42.644;23.284;2022-07-29T22:37:43;5.57;;;5.10;;
9228;SDS011;4649;42.644;23.284;2022-07-29T22:40:12;4.90;;;3.83;;
9228;SDS011;4649;42.644;23.284;2022-07-29T22:42:39;3.23;;;3.13;;
9228;SDS011;4649;42.644;23.284;2022-07-29T22:45:07;4.20;;;3.17;;
9228;SDS011;4649;42.644;23.284;2022-07-29T22:47:36;3.13;;;2.93;;
9228;SDS011;4649;42.644;23.284;2022-07-29T22:50:04;3.33;;;3.13;;
9228;SDS011;4649;42.644;23.284;2022-07-29T22:52:31;4.57;;;3.33;;
9228;SDS011;4649;42.644;23.284;2022-07-29T22:54:58;3.80;;;3.60;;
9228;SDS011;4649;42.644;23.284;2022-07-29T22:57:25;4.50;;;3.50;;
9228;SDS011;4649;42.644;23.284;2022-07-29T22:59:52;8.40;;;4.00;;
9228;SDS011;4649;42.644;23.284;2022-07-29T23:02:19;4.90;;;4.27;;
9228;SDS011;4649;42.644;23.284;2022-07-29T23:04:49;3.90;;;3.60;;
9228;SDS011;4649;42.644;23.284;2022-07-29T23:07:16;3.53;;;3.43;;
9228;SDS011;4649;42.644;23.284;2022-07-29T23:09:43;4.13;;;3.83;;
9228;SDS011;4649;42.644;23.284;2022-07-29T23:12:10;4.10;;;3.90;;
9228;SDS011;4649;42.644;23.284;2022-07-29T23:14:36;4.10;;;3.90;;
9228;SDS011;4649;42.644;23.284;2022-07-29T23:17:03;4.90;;;4.60;;
9228;SDS011;4649;42.644;23.284;2022-07-29T23:19:30;4.70;;;4.50;;
9228;SDS011;4649;42.644;23.284;2022-07-29T23:21:58;4.47;;;4.20;;
9228;SDS011;4649;42.644;23.284;2022-07-29T23:24:28;4.03;;;3.83;;
9228;SDS011;4649;42.644;23.284;2022-07-29T23:26:54;4.40;;;4.20;;
9228;SDS011;4649;42.644;23.284;2022-07-29T23:29:21;4.77;;;4.40;;
9228;SDS011;4649;42.644;23.284;2022-07-29T23:31:49;4.63;;;4.43;;
9228;SDS011;4649;42.644;23.284;2022-07-29T23:34:16;4.43;;;4.23;;
9228;SDS011;4649;42.644;23.284;2022-07-29T23:36:43;4.50;;;4.23;;
9228;SDS011;4649;42.644;23.284;2022-07-29T23:39:11;4.97;;;4.67;;
9228;SDS011;4649;42.644;23.284;2022-07-29T23:41:40;4.37;;;4.03;;
9228;SDS011;4649;42.644;23.284;2022-07-29T23:44:06;4.93;;;4.43;;
9228;SDS011;4649;42.644;23.284;2022-07-29T23:46:36;6.77;;;4.60;;
9228;SDS011;4649;42.644;23.284;2022-07-29T23:49:03;4.93;;;4.57;;
9228;SDS011;4649;42.644;23.284;2022-07-29T23:51:29;4.40;;;4.20;;
9228;SDS011;4649;42.644;23.284;2022-07-29T23:53:56;7.73;;;4.57;;
9228;SDS011;4649;42.644;23.284;2022-07-29T23:56:25;4.77;;;4.50;;
9228;SDS011;4649;42.644;23.284;2022-07-29T23:58:52;5.83;;;4.60;;
